createdAt,value
2019-05-26T00:02:11.962Z,63.43
2019-05-26T00:04:42.540Z,63.75
2019-05-26T00:07:13.129Z,63.53
2019-05-26T00:09:43.713Z,63.37
2019-05-26T00:12:15.997Z,62.74
2019-05-26T00:14:46.835Z,63.27
2019-05-26T00:17:17.576Z,63.46
2019-05-26T00:19:48.277Z,63.34
2019-05-26T00:22:18.959Z,63.26
2019-05-26T00:24:49.543Z,63.47
2019-05-26T00:27:20.125Z,63.27
2019-05-26T00:29:50.714Z,63.51
2019-05-26T00:32:22.279Z,62.96
2019-05-26T00:34:52.839Z,63.67
2019-05-26T00:37:23.423Z,63.46
2019-05-26T00:39:54.006Z,63.89
2019-05-26T00:42:24.621Z,63.78
2019-05-26T00:44:55.202Z,63.86
2019-05-26T00:47:25.789Z,63.43
2019-05-26T00:49:56.368Z,63.42
2019-05-26T00:52:27.078Z,63.13
2019-05-26T00:54:57.638Z,63.45
2019-05-26T00:57:28.494Z,63.37
2019-05-26T00:59:59.096Z,63.57
2019-05-26T01:02:29.658Z,63.44
2019-05-26T01:05:00.476Z,63.46
2019-05-26T01:07:31.041Z,63.50
2019-05-26T01:10:03.887Z,63.47
2019-05-26T01:12:34.665Z,63.69
2019-05-26T01:15:08.415Z,63.30
2019-05-26T01:17:40.451Z,63.30
2019-05-26T01:20:12.825Z,63.00
2019-05-26T01:22:44.844Z,63.00
2019-05-26T01:25:16.972Z,63.11
2019-05-26T01:27:48.539Z,63.34
2019-05-26T01:30:21.717Z,63.73
2019-05-26T01:32:52.332Z,64.08
2019-05-26T01:35:24.219Z,64.20
2019-05-26T01:37:54.822Z,63.66
2019-05-26T01:40:31.197Z,62.84
2019-05-26T01:43:03.383Z,64.12
2019-05-26T01:45:34.188Z,64.76
2019-05-26T01:48:05.698Z,64.70
2019-05-26T01:50:36.423Z,64.71
2019-05-26T01:53:07.374Z,64.67
2019-05-26T01:55:37.946Z,64.46
2019-05-26T01:58:08.526Z,63.74
2019-05-26T02:00:41.011Z,63.88
2019-05-26T02:03:11.633Z,64.24
2019-05-26T02:05:42.502Z,63.90
2019-05-26T02:08:14.337Z,64.12
2019-05-26T02:10:44.909Z,63.58
2019-05-26T02:13:15.499Z,63.35
2019-05-26T02:15:46.088Z,63.24
2019-05-26T02:18:16.678Z,63.21
2019-05-26T02:20:48.241Z,63.32
2019-05-26T02:23:18.836Z,63.52
2019-05-26T02:25:49.465Z,63.52
2019-05-26T02:28:20.254Z,63.60
2019-05-26T02:30:50.916Z,63.54
2019-05-26T02:33:21.502Z,63.29
2019-05-26T02:35:52.095Z,63.52
2019-05-26T02:38:26.008Z,63.53
2019-05-26T02:40:57.921Z,63.48
2019-05-26T02:43:28.576Z,63.42
2019-05-26T02:45:59.202Z,63.40
2019-05-26T02:48:29.786Z,63.11
2019-05-26T02:51:00.419Z,63.27
2019-05-26T02:53:30.997Z,63.17
2019-05-26T02:56:02.012Z,63.57
2019-05-26T02:58:32.678Z,63.61
2019-05-26T03:01:03.507Z,63.78
2019-05-26T03:03:34.139Z,63.64
2019-05-26T03:06:06.355Z,63.76
2019-05-26T03:08:37.888Z,63.65
2019-05-26T03:11:12.286Z,63.61
2019-05-26T03:13:47.195Z,63.37
2019-05-26T03:16:20.754Z,63.40
2019-05-26T03:18:56.686Z,63.26
2019-05-26T03:21:29.940Z,63.65
2019-05-26T03:24:04.882Z,63.93
2019-05-26T03:26:35.651Z,63.65
2019-05-26T03:29:06.255Z,63.68
2019-05-26T03:31:37.053Z,63.64
2019-05-26T03:34:07.940Z,63.60
2019-05-26T03:36:38.563Z,63.65
2019-05-26T03:39:09.143Z,63.45
2019-05-26T03:41:39.753Z,63.61
2019-05-26T03:44:10.336Z,63.09
2019-05-26T03:46:40.925Z,63.45
2019-05-26T03:49:11.494Z,63.41
2019-05-26T03:51:42.073Z,63.62
2019-05-26T03:54:12.709Z,63.63
2019-05-26T03:56:43.254Z,63.54
2019-05-26T03:59:13.836Z,62.82
2019-05-26T04:01:44.442Z,63.08
2019-05-26T04:04:15.029Z,63.08
2019-05-26T04:06:45.627Z,62.62
2019-05-26T04:09:16.323Z,62.75
2019-05-26T04:11:46.891Z,62.98
2019-05-26T04:14:17.571Z,62.94
2019-05-26T04:16:48.155Z,63.40
2019-05-26T04:19:18.839Z,63.56
2019-05-26T04:21:49.421Z,63.38
2019-05-26T04:24:20.028Z,62.87
2019-05-26T04:26:50.634Z,63.60
2019-05-26T04:29:21.246Z,62.98
2019-05-26T04:31:51.831Z,63.69
2019-05-26T04:34:22.423Z,63.79
2019-05-26T04:36:53.015Z,63.35
2019-05-26T04:39:23.690Z,63.93
2019-05-26T04:41:54.303Z,63.19
2019-05-26T04:44:24.869Z,63.40
2019-05-26T04:46:55.484Z,63.21
2019-05-26T04:49:27.062Z,62.08
2019-05-26T04:51:58.156Z,62.33
2019-05-26T04:54:30.192Z,62.02
2019-05-26T04:57:00.783Z,61.09
2019-05-26T04:59:31.372Z,61.24
2019-05-26T05:02:01.967Z,60.91
2019-05-26T05:04:32.569Z,60.86
2019-05-26T05:07:03.164Z,61.22
2019-05-26T05:09:33.879Z,59.96
2019-05-26T05:12:05.731Z,59.53
2019-05-26T05:14:37.090Z,59.99
2019-05-26T05:17:07.695Z,59.23
2019-05-26T05:19:38.268Z,58.84
2019-05-26T05:22:08.850Z,58.89
2019-05-26T05:24:39.435Z,58.63
2019-05-26T05:27:10.041Z,57.81
2019-05-26T05:29:40.728Z,56.24
2019-05-26T05:32:11.451Z,54.49
2019-05-26T05:34:42.031Z,48.80
2019-05-26T05:37:12.718Z,49.12
2019-05-26T05:39:43.419Z,48.14
2019-05-26T05:42:14.004Z,51.27
2019-05-26T05:44:44.581Z,50.34
2019-05-26T05:47:15.652Z,51.74
2019-05-26T05:49:46.448Z,48.69
2019-05-26T05:52:17.050Z,45.64
2019-05-26T05:54:47.640Z,48.82
2019-05-26T05:57:18.280Z,50.34
2019-05-26T05:59:48.929Z,51.03
2019-05-26T06:02:20.693Z,51.33
2019-05-26T06:04:51.832Z,45.27
2019-05-26T06:07:22.491Z,41.63
2019-05-26T06:09:53.569Z,42.86
2019-05-26T06:12:24.229Z,44.87
2019-05-26T06:14:56.835Z,46.34
2019-05-26T06:17:28.206Z,48.21
2019-05-26T06:19:59.407Z,49.71
2019-05-26T06:22:30.291Z,49.71
2019-05-26T06:25:00.883Z,49.28
2019-05-26T06:27:31.540Z,47.96
2019-05-26T06:30:04.450Z,49.97
2019-05-26T06:32:35.134Z,50.91
2019-05-26T06:35:06.260Z,49.79
2019-05-26T06:37:38.739Z,47.64
2019-05-26T06:40:11.133Z,48.39
2019-05-26T06:42:42.296Z,49.04
2019-05-26T06:45:14.192Z,47.07
2019-05-26T06:47:45.777Z,47.29
2019-05-26T06:50:18.292Z,47.08
2019-05-26T06:52:49.617Z,46.51
2019-05-26T06:55:21.208Z,42.78
2019-05-26T06:57:52.333Z,42.78
2019-05-26T07:00:23.154Z,40.12
2019-05-26T07:02:54.604Z,38.78
2019-05-26T07:05:25.149Z,37.47
2019-05-26T07:07:55.750Z,36.69
2019-05-26T07:10:27.301Z,34.00
2019-05-26T07:12:57.924Z,33.27
2019-05-26T07:15:28.778Z,32.95
2019-05-26T07:17:59.496Z,36.05
2019-05-26T07:20:30.612Z,36.93
2019-05-26T07:23:02.831Z,35.04
2019-05-26T07:25:33.623Z,36.79
2019-05-26T07:28:06.125Z,37.41
2019-05-26T07:30:37.446Z,37.06
2019-05-26T07:33:08.188Z,38.46
2019-05-26T07:35:39.129Z,38.58
2019-05-26T07:38:09.884Z,38.83
2019-05-26T07:40:40.735Z,36.46
2019-05-26T07:43:11.818Z,35.58
2019-05-26T07:45:42.609Z,35.60
2019-05-26T07:48:13.234Z,34.05
2019-05-26T07:50:44.014Z,34.26
2019-05-26T07:53:16.125Z,34.77
2019-05-26T07:55:46.714Z,34.02
2019-05-26T07:58:17.342Z,35.08
2019-05-26T08:00:47.924Z,34.97
2019-05-26T08:03:18.569Z,36.27
2019-05-26T08:05:50.338Z,35.55
2019-05-26T08:08:22.938Z,36.75
2019-05-26T08:10:54.352Z,35.79
2019-05-26T08:13:25.329Z,34.08
2019-05-26T08:15:58.211Z,33.51
2019-05-26T08:18:28.796Z,33.29
2019-05-26T08:20:59.401Z,33.96
2019-05-26T08:23:30.170Z,33.58
2019-05-26T08:26:00.963Z,33.39
2019-05-26T08:28:31.651Z,33.88
2019-05-26T08:31:02.337Z,33.24
2019-05-26T08:33:33.017Z,34.21
2019-05-26T08:36:04.008Z,34.01
2019-05-26T08:38:34.605Z,33.93
2019-05-26T08:41:07.510Z,33.61
2019-05-26T08:43:38.100Z,33.05
2019-05-26T08:46:09.058Z,33.72
2019-05-26T08:48:39.714Z,33.93
2019-05-26T08:51:11.505Z,33.75
2019-05-26T08:53:42.247Z,33.21
2019-05-26T08:56:13.102Z,33.30
2019-05-26T08:58:43.882Z,32.54
2019-05-26T09:01:14.893Z,31.76
2019-05-26T09:03:45.627Z,32.45
2019-05-26T09:06:16.316Z,32.47
2019-05-26T09:08:47.046Z,33.65
2019-05-26T09:11:17.741Z,33.16
2019-05-26T09:13:48.582Z,35.32
2019-05-26T09:16:19.260Z,34.09
2019-05-26T09:18:50.361Z,34.96
2019-05-26T09:21:21.194Z,34.55
2019-05-26T09:23:51.796Z,32.82
2019-05-26T09:26:22.898Z,32.46
2019-05-26T09:28:53.471Z,33.66
2019-05-26T09:31:24.053Z,33.34
2019-05-26T09:33:54.635Z,33.21
2019-05-26T09:36:25.551Z,34.12
2019-05-26T09:38:56.106Z,33.12
2019-05-26T09:41:26.783Z,33.69
2019-05-26T09:43:57.418Z,34.02
2019-05-26T09:46:28.012Z,33.38
2019-05-26T09:49:00.912Z,32.24
2019-05-26T09:51:31.295Z,34.24
2019-05-26T09:54:02.391Z,33.25
2019-05-26T09:56:33.771Z,33.65
2019-05-26T09:59:04.598Z,32.52
2019-05-26T10:01:35.188Z,32.08
2019-05-26T10:04:06.634Z,32.30
2019-05-26T10:06:37.406Z,30.96
2019-05-26T10:09:08.743Z,33.66
2019-05-26T10:11:39.418Z,33.46
2019-05-26T10:14:10.323Z,34.58
2019-05-26T10:16:41.067Z,36.71
2019-05-26T10:19:11.619Z,36.02
2019-05-26T10:21:42.206Z,36.41
2019-05-26T10:24:12.869Z,35.26
2019-05-26T10:26:43.454Z,35.66
2019-05-26T10:29:16.743Z,34.62
2019-05-26T10:31:47.428Z,36.53
2019-05-26T10:34:18.052Z,35.08
2019-05-26T10:36:48.629Z,35.30
2019-05-26T10:39:19.206Z,35.05
2019-05-26T10:41:49.765Z,34.83
2019-05-26T10:44:20.343Z,34.90
2019-05-26T10:46:50.942Z,34.75
2019-05-26T10:49:21.511Z,35.47
2019-05-26T10:51:52.097Z,35.56
2019-05-26T10:54:22.669Z,35.89
2019-05-26T10:56:53.498Z,35.98
2019-05-26T10:59:24.311Z,36.55
2019-05-26T11:01:54.985Z,37.07
2019-05-26T11:04:25.567Z,36.50
2019-05-26T11:06:56.981Z,36.17
2019-05-26T11:09:27.653Z,35.41
2019-05-26T11:11:58.260Z,35.09
2019-05-26T11:14:28.816Z,36.77
2019-05-26T11:17:00.397Z,37.19
2019-05-26T11:19:31.113Z,36.88
2019-05-26T11:22:01.712Z,38.06
2019-05-26T11:24:32.293Z,35.81
2019-05-26T11:27:10.292Z,35.57
2019-05-26T11:29:36.229Z,35.88
2019-05-26T11:32:06.817Z,34.21
2019-05-26T11:34:37.508Z,35.97
2019-05-26T11:37:09.263Z,34.69
2019-05-26T11:39:39.896Z,35.17
2019-05-26T11:42:13.681Z,35.50
2019-05-26T11:44:42.857Z,34.45
2019-05-26T11:47:13.535Z,35.93
2019-05-26T11:49:44.525Z,34.80
2019-05-26T11:52:15.122Z,35.71
2019-05-26T11:54:45.713Z,34.56
2019-05-26T11:57:50.468Z,35.76
2019-05-26T12:00:22.306Z,35.03
2019-05-26T12:02:52.979Z,34.10
2019-05-26T12:05:23.567Z,34.81
2019-05-26T12:07:54.146Z,35.37
2019-05-26T12:10:24.825Z,35.36
2019-05-26T12:12:55.684Z,36.15
2019-05-26T12:15:26.414Z,34.72
2019-05-26T12:17:57.015Z,34.76
2019-05-26T12:20:27.626Z,34.78
2019-05-26T12:22:58.301Z,35.37
2019-05-26T12:25:28.986Z,35.08
2019-05-26T12:27:59.659Z,35.96
2019-05-26T12:30:30.472Z,35.35
2019-05-26T12:33:01.095Z,36.61
2019-05-26T12:35:42.406Z,35.24
2019-05-26T12:38:13.236Z,34.53
2019-05-26T12:40:44.843Z,36.77
2019-05-26T12:43:15.651Z,35.41
2019-05-26T12:45:46.315Z,36.04
2019-05-26T12:48:17.026Z,35.55
2019-05-26T12:50:47.864Z,36.37
2019-05-26T12:53:18.647Z,36.17
2019-05-26T12:55:49.385Z,35.50
2019-05-26T12:58:20.051Z,37.06
2019-05-26T13:00:54.622Z,35.25
2019-05-26T13:03:22.937Z,34.65
2019-05-26T13:05:53.703Z,35.25
2019-05-26T13:08:24.726Z,36.01
2019-05-26T13:10:56.346Z,34.86
2019-05-26T13:13:28.140Z,35.03
2019-05-26T13:15:58.775Z,35.48
2019-05-26T13:18:29.370Z,35.65
2019-05-26T13:20:59.950Z,35.86
2019-05-26T13:23:30.544Z,35.36
2019-05-26T13:26:01.148Z,35.38
2019-05-26T13:28:32.832Z,35.84
2019-05-26T13:31:03.437Z,36.28
2019-05-26T13:33:34.222Z,36.34
2019-05-26T13:36:05.186Z,35.44
2019-05-26T13:38:35.775Z,34.91
2019-05-26T13:41:07.470Z,35.99
2019-05-26T13:43:38.079Z,34.75
2019-05-26T13:46:09.040Z,35.70
2019-05-26T13:48:39.933Z,35.16
2019-05-26T13:51:10.719Z,33.66
2019-05-26T13:53:41.397Z,35.95
2019-05-26T13:56:11.881Z,33.14
2019-05-26T13:58:42.453Z,34.12
2019-05-26T14:01:13.137Z,34.78
2019-05-26T14:03:43.752Z,33.37
2019-05-26T14:06:14.375Z,34.26
2019-05-26T14:08:44.954Z,34.51
2019-05-26T14:11:17.018Z,34.56
2019-05-26T14:13:48.367Z,33.62
2019-05-26T14:16:20.336Z,34.45
2019-05-26T14:18:53.625Z,35.40
2019-05-26T14:21:24.205Z,36.33
2019-05-26T14:23:54.769Z,34.99
2019-05-26T14:26:25.357Z,35.30
2019-05-26T14:28:55.919Z,34.38
2019-05-26T14:31:26.735Z,36.22
2019-05-26T14:33:57.290Z,35.09
2019-05-26T14:36:27.864Z,35.29
2019-05-26T14:38:59.911Z,34.03
2019-05-26T14:41:30.508Z,33.74
2019-05-26T14:44:01.300Z,33.56
2019-05-26T14:46:31.952Z,35.67
2019-05-26T14:49:02.574Z,35.73
2019-05-26T14:51:34.769Z,35.83
2019-05-26T14:54:05.396Z,36.45
2019-05-26T14:56:36.180Z,35.80
2019-05-26T14:59:09.133Z,36.02
2019-05-26T15:01:39.968Z,36.51
2019-05-26T15:04:10.624Z,35.69
2019-05-26T15:06:41.279Z,36.61
2019-05-26T15:09:24.395Z,35.82
2019-05-26T15:11:45.239Z,35.12
2019-05-26T15:14:18.082Z,36.50
2019-05-26T15:16:49.747Z,36.30
2019-05-26T15:19:20.409Z,36.57
2019-05-26T15:21:51.509Z,36.42
2019-05-26T15:24:22.267Z,36.94
2019-05-26T15:26:53.071Z,37.36
2019-05-26T15:29:23.672Z,35.68
2019-05-26T15:31:56.386Z,35.62
2019-05-26T15:34:26.994Z,37.63
2019-05-26T15:36:57.584Z,37.29
2019-05-26T15:39:28.170Z,36.53
2019-05-26T15:41:58.926Z,36.30
2019-05-26T15:44:29.643Z,37.02
2019-05-26T15:47:00.347Z,36.44
2019-05-26T15:49:31.283Z,35.84
2019-05-26T15:52:03.420Z,36.12
2019-05-26T15:54:34.063Z,37.05
2019-05-26T15:57:05.710Z,35.95
2019-05-26T15:59:36.394Z,34.77
2019-05-26T16:02:08.638Z,36.03
2019-05-26T16:04:39.359Z,36.94
2019-05-26T16:07:10.087Z,36.84
2019-05-26T16:09:41.825Z,37.20
2019-05-26T16:12:13.882Z,37.12
2019-05-26T16:14:44.458Z,37.99
2019-05-26T16:17:15.192Z,36.65
2019-05-26T16:19:45.771Z,37.38
2019-05-26T16:22:16.764Z,37.38
2019-05-26T16:24:48.496Z,37.75
2019-05-26T16:27:19.964Z,37.35
2019-05-26T16:29:50.736Z,37.53
2019-05-26T16:32:21.320Z,37.81
2019-05-26T16:34:51.976Z,36.92
2019-05-26T16:37:40.191Z,37.58
2019-05-26T16:40:11.707Z,38.33
2019-05-26T16:42:43.092Z,38.16
2019-05-26T16:45:14.713Z,39.15
2019-05-26T16:47:45.275Z,39.00
2019-05-26T16:50:16.029Z,39.54
2019-05-26T16:52:48.790Z,39.21
2019-05-26T16:55:19.920Z,39.44
2019-05-26T16:57:51.558Z,40.25
2019-05-26T17:00:23.865Z,38.17
2019-05-26T17:02:55.007Z,39.63
2019-05-26T17:05:26.097Z,39.44
2019-05-26T17:07:57.670Z,40.01
2019-05-26T17:10:28.849Z,40.13
2019-05-26T17:13:01.995Z,39.80
2019-05-26T17:15:32.712Z,39.19
2019-05-26T17:18:04.784Z,40.56
2019-05-26T17:20:37.121Z,40.28
2019-05-26T17:23:07.816Z,40.95
2019-05-26T17:25:38.516Z,41.21
2019-05-26T17:28:10.615Z,41.03
2019-05-26T17:30:41.290Z,40.90
2019-05-26T17:33:13.530Z,40.78
2019-05-26T17:35:44.118Z,41.55
2019-05-26T17:38:14.725Z,40.97
2019-05-26T17:40:45.302Z,41.58
2019-05-26T17:43:16.058Z,41.72
2019-05-26T17:45:47.307Z,42.20
2019-05-26T17:48:18.681Z,42.36
2019-05-26T17:50:49.366Z,41.92
2019-05-26T17:53:21.530Z,41.43
2019-05-26T17:55:52.954Z,41.37
2019-05-26T17:58:40.742Z,42.87
2019-05-26T18:01:13.778Z,41.63
2019-05-26T18:03:47.645Z,42.07
2019-05-26T18:06:18.557Z,41.93
2019-05-26T18:08:50.108Z,42.88
2019-05-26T18:11:20.965Z,42.63
2019-05-26T18:13:51.846Z,42.80
2019-05-26T18:16:22.733Z,43.23
2019-05-26T18:18:54.236Z,43.09
2019-05-26T18:21:25.451Z,43.52
2019-05-26T18:23:56.850Z,43.60
2019-05-26T18:26:29.415Z,43.24
2019-05-26T18:29:00.070Z,43.67
2019-05-26T18:31:30.749Z,43.67
2019-05-26T18:34:02.171Z,43.55
2019-05-26T18:36:34.754Z,44.72
2019-05-26T18:39:08.791Z,43.84
2019-05-26T18:41:40.298Z,43.84
2019-05-26T18:44:11.433Z,45.07
2019-05-26T18:46:42.585Z,44.29
2019-05-26T18:49:13.323Z,44.60
2019-05-26T18:51:44.545Z,45.36
2019-05-26T18:54:17.126Z,44.40
2019-05-26T18:56:47.897Z,45.71
2019-05-26T18:59:19.009Z,45.54
2019-05-26T19:01:50.408Z,45.47
2019-05-26T19:04:21.542Z,45.33
2019-05-26T19:06:52.652Z,46.15
2019-05-26T19:09:23.419Z,46.32
2019-05-26T19:11:54.672Z,46.14
2019-05-26T19:14:26.021Z,46.40
2019-05-26T19:16:57.011Z,46.70
2019-05-26T19:19:28.084Z,46.89
2019-05-26T19:21:59.690Z,46.99
2019-05-26T19:24:31.093Z,47.15
2019-05-26T19:27:02.536Z,47.63
2019-05-26T19:29:33.508Z,47.63
2019-05-26T19:32:05.129Z,47.63
2019-05-26T19:34:36.213Z,48.00
2019-05-26T19:37:07.612Z,48.38
2019-05-26T19:39:39.575Z,48.87
2019-05-26T19:42:10.432Z,48.17
2019-05-26T19:44:41.714Z,50.12
2019-05-26T19:47:12.858Z,49.07
2019-05-26T19:49:44.898Z,48.61
2019-05-26T19:52:16.518Z,48.54
2019-05-26T19:54:48.009Z,48.30
2019-05-26T19:57:19.404Z,48.67
2019-05-26T19:59:50.537Z,48.80
2019-05-26T20:02:21.402Z,48.56
2019-05-26T20:04:52.191Z,49.06
2019-05-26T20:07:23.620Z,49.16
2019-05-26T20:09:56.328Z,49.34
2019-05-26T20:12:27.795Z,49.37
2019-05-26T20:14:58.650Z,49.64
2019-05-26T20:17:30.044Z,49.68
2019-05-26T20:20:03.524Z,49.72
2019-05-26T20:22:36.109Z,49.80
2019-05-26T20:25:10.495Z,50.32
2019-05-26T20:27:43.555Z,49.88
2019-05-26T20:30:16.083Z,50.10
2019-05-26T20:32:46.787Z,50.69
2019-05-26T20:35:18.067Z,50.01
2019-05-26T20:37:48.862Z,50.07
2019-05-26T20:40:19.678Z,49.96
2019-05-26T20:42:50.338Z,50.06
2019-05-26T20:45:21.116Z,50.50
2019-05-26T20:47:51.880Z,50.07
2019-05-26T20:50:29.361Z,50.40
2019-05-26T20:52:55.918Z,50.70
2019-05-26T20:55:26.596Z,50.51
2019-05-26T20:57:59.219Z,50.13
2019-05-26T21:00:29.833Z,51.00
2019-05-26T21:03:00.711Z,50.53
2019-05-26T21:05:32.811Z,50.16
2019-05-26T21:08:03.549Z,50.45
2019-05-26T21:10:34.196Z,50.40
2019-05-26T21:13:05.092Z,50.62
2019-05-26T21:15:35.984Z,50.48
2019-05-26T21:18:06.658Z,50.81
2019-05-26T21:20:37.621Z,50.79
2019-05-26T21:23:10.537Z,51.40
2019-05-26T21:25:41.414Z,51.41
2019-05-26T21:28:12.094Z,51.45
2019-05-26T21:30:43.572Z,51.46
2019-05-26T21:33:15.610Z,51.41
2019-05-26T21:35:46.199Z,51.57
2019-05-26T21:38:16.846Z,51.26
2019-05-26T21:40:47.505Z,51.68
2019-05-26T21:43:18.813Z,51.59
2019-05-26T21:45:49.592Z,51.91
2019-05-26T21:48:20.271Z,52.00
2019-05-26T21:50:50.830Z,52.12
2019-05-26T21:53:21.480Z,52.14
2019-05-26T21:55:52.104Z,52.38
2019-05-26T21:58:22.679Z,52.55
2019-05-26T22:00:53.542Z,52.48
2019-05-26T22:03:24.316Z,52.69
2019-05-26T22:05:56.026Z,52.95
2019-05-26T22:08:26.702Z,53.30
2019-05-26T22:10:57.333Z,53.21
2019-05-26T22:13:27.987Z,53.46
2019-05-26T22:15:58.777Z,53.90
2019-05-26T22:18:29.467Z,53.98
2019-05-26T22:21:00.143Z,53.68
2019-05-26T22:23:30.811Z,53.78
2019-05-26T22:26:01.359Z,53.76
2019-05-26T22:28:31.938Z,53.56
2019-05-26T22:31:02.705Z,53.34
2019-05-26T22:33:33.278Z,54.08
2019-05-26T22:36:03.856Z,54.24
2019-05-26T22:38:34.522Z,54.14
2019-05-26T22:41:05.168Z,54.00
2019-05-26T22:43:36.833Z,53.96
2019-05-26T22:46:07.408Z,54.18
2019-05-26T22:48:38.010Z,54.28
2019-05-26T22:51:08.694Z,54.50
2019-05-26T22:53:39.377Z,54.42
2019-05-26T22:56:11.736Z,54.23
2019-05-26T22:58:42.408Z,54.46
2019-05-26T23:01:13.449Z,54.50
2019-05-26T23:03:44.209Z,54.18
2019-05-26T23:06:14.894Z,54.40
2019-05-26T23:08:45.606Z,54.52
2019-05-26T23:11:17.615Z,54.56
2019-05-26T23:13:51.082Z,53.84
2019-05-26T23:16:22.416Z,54.47
2019-05-26T23:18:54.422Z,54.50
2019-05-26T23:21:25.188Z,54.47
2019-05-26T23:23:56.862Z,54.89
2019-05-26T23:26:28.912Z,54.70
2019-05-26T23:29:00.173Z,54.20
2019-05-26T23:31:32.187Z,54.51
2019-05-26T23:34:04.252Z,55.38
2019-05-26T23:36:36.270Z,55.16
2019-05-26T23:39:08.330Z,55.13
2019-05-26T23:41:40.713Z,55.01
2019-05-26T23:44:12.726Z,55.15
2019-05-26T23:46:43.477Z,54.89
2019-05-26T23:49:13.987Z,55.10
2019-05-26T23:51:44.591Z,55.10
2019-05-26T23:54:15.351Z,54.79
2019-05-26T23:56:46.034Z,54.95
2019-05-26T23:59:16.796Z,54.83
